Time;durP1;ratioP1;P1;durP2;ratioP2;P2;SDS_P1;SDS_P2;PMS_P1;PMS_P2;Temp;Humidity;BMP_temperature;BMP_pressure;BME280_temperature;BME280_humidity;BME280_pressure;Samples;Min_cycle;Max_cycle;Signal;HPM_P1;HPM_P2
2022/08/27 00:01:16;;;;;;;14.55;7.80;;;28.80;62.90;;;;;;5077932;28;20571;-80
2022/08/27 00:03:45;;;;;;;13.02;9.32;;;28.40;63.60;;;;;;5078235;28;20024;-82
2022/08/27 00:06:16;;;;;;;14.82;7.80;;;28.20;64.00;;;;;;5096397;28;20028;-84
2022/08/27 00:08:43;;;;;;;18.02;8.50;;;28.30;63.90;;;;;;5096154;28;20028;-87
2022/08/27 00:11:09;;;;;;;11.73;7.50;;;28.50;63.50;;;;;;5096289;28;20463;-84
2022/08/27 00:13:36;;;;;;;7.53;6.50;;;28.70;62.90;;;;;;5096158;28;20036;-89
2022/08/27 00:16:08;;;;;;;13.23;7.47;;;28.60;63.30;;;;;;5095780;28;20431;-87
2022/08/27 00:18:35;;;;;;;13.90;7.72;;;28.50;63.30;;;;;;5096193;28;20103;-88
2022/08/27 00:21:02;;;;;;;13.10;7.35;;;28.50;63.30;;;;;;5077399;28;20028;-80
2022/08/27 00:23:28;;;;;;;14.63;8.50;;;28.40;63.80;;;;;;5096512;28;20024;-86
2022/08/27 00:25:54;;;;;;;14.00;7.78;;;28.50;63.40;;;;;;5095822;28;20383;-83
2022/08/27 00:28:20;;;;;;;10.15;7.50;;;28.30;63.80;;;;;;5095451;28;20480;-84
2022/08/27 00:30:46;;;;;;;13.30;8.75;;;28.50;63.30;;;;;;5077174;28;20036;-80
2022/08/27 00:33:12;;;;;;;15.90;7.53;;;28.50;63.00;;;;;;5095771;28;20455;-87
2022/08/27 00:35:38;;;;;;;11.32;7.22;;;28.20;63.80;;;;;;5077649;28;20023;-85
2022/08/27 00:38:04;;;;;;;12.60;8.15;;;28.00;63.90;;;;;;5095460;28;20028;-80
2022/08/27 00:40:32;;;;;;;13.63;8.30;;;28.00;64.30;;;;;;5077827;28;20031;-87
2022/08/27 00:43:01;;;;;;;14.25;7.25;;;28.10;64.00;;;;;;5095470;28;20109;-84
2022/08/27 00:45:29;;;;;;;12.30;7.97;;;28.00;64.40;;;;;;5095294;28;20023;-79
2022/08/27 00:47:58;;;;;;;13.27;8.35;;;28.20;63.90;;;;;;5095125;28;20045;-84
2022/08/27 00:50:49;;;;;;;14.65;7.28;;;28.20;63.70;;;;;;5095377;28;20433;-88
2022/08/27 00:53:28;;;;;;;12.82;7.50;;;28.10;63.90;;;;;;5065791;28;20052;-79
2022/08/27 00:56:10;;;;;;;12.13;7.35;;;27.80;64.80;;;;;;5077197;28;20027;-87
2022/08/27 00:58:43;;;;;;;16.27;9.73;;;27.60;65.60;;;;;;5077183;28;20039;-84
2022/08/27 01:01:24;;;;;;;14.15;9.00;;;27.70;65.00;;;;;;5094899;28;20024;-83
2022/08/27 01:03:53;;;;;;;10.95;7.18;;;28.00;64.20;;;;;;5095179;28;20103;-86
2022/08/27 01:06:20;;;;;;;14.82;7.97;;;28.10;64.20;;;;;;5077144;28;20016;-79
2022/08/27 01:08:57;;;;;;;14.63;7.45;;;28.00;64.50;;;;;;5095216;28;20020;-80
2022/08/27 01:11:24;;;;;;;11.90;8.40;;;28.00;64.20;;;;;;5095343;28;20032;-86
2022/08/27 01:13:50;;;;;;;21.27;9.00;;;27.60;65.50;;;;;;5094713;28;20383;-82
2022/08/27 01:16:25;;;;;;;14.05;8.20;;;27.60;65.20;;;;;;5094982;28;20390;-84
2022/08/27 01:18:52;;;;;;;14.95;9.38;;;27.70;65.00;;;;;;5094965;28;20047;-86
2022/08/27 01:21:20;;;;;;;14.82;8.85;;;27.70;65.60;;;;;;5095093;28;20352;-85
2022/08/27 01:24:12;;;;;;;13.93;9.00;;;28.00;65.10;;;;;;5094793;28;20058;-88
2022/08/27 01:26:40;;;;;;;16.42;7.90;;;28.30;64.50;;;;;;5077219;28;20036;-88
2022/08/27 01:29:06;;;;;;;10.73;7.82;;;28.30;64.40;;;;;;5076368;28;20051;-84
2022/08/27 01:31:31;;;;;;;16.27;8.85;;;28.30;64.30;;;;;;5094581;28;20052;-79
2022/08/27 01:34:04;;;;;;;15.57;8.70;;;28.30;64.90;;;;;;5076230;28;20573;-80
2022/08/27 01:36:30;;;;;;;16.40;8.93;;;28.30;64.10;;;;;;5094443;28;20024;-86
2022/08/27 01:38:56;;;;;;;14.32;9.52;;;28.30;63.90;;;;;;5076261;28;20040;-81
2022/08/27 01:41:23;;;;;;;22.05;9.60;;;28.30;63.40;;;;;;5076654;28;20063;-82
2022/08/27 01:43:49;;;;;;;18.33;8.77;;;28.20;63.20;;;;;;5076587;28;20028;-83
2022/08/27 01:46:19;;;;;;;13.45;8.57;;;28.10;63.30;;;;;;5076177;28;20035;-82
2022/08/27 01:48:45;;;;;;;16.58;9.30;;;28.00;63.20;;;;;;5094477;28;20018;-81
2022/08/27 01:51:11;;;;;;;9.50;7.03;;;28.00;63.40;;;;;;5094350;28;20036;-79
2022/08/27 01:53:36;;;;;;;14.93;8.98;;;27.90;63.80;;;;;;5093593;28;20130;-79
2022/08/27 01:56:03;;;;;;;15.55;8.48;;;27.70;64.60;;;;;;5094678;28;20417;-79
2022/08/27 01:58:30;;;;;;;15.95;7.93;;;27.70;64.80;;;;;;5076044;28;20467;-81
2022/08/27 02:01:01;;;;;;;13.90;7.68;;;27.50;65.10;;;;;;5094907;28;20024;-81
2022/08/27 02:03:28;;;;;;;14.57;8.82;;;27.20;66.00;;;;;;5075858;28;20077;-84
2022/08/27 02:05:53;;;;;;;16.48;8.32;;;27.30;66.00;;;;;;5094063;28;20024;-86
2022/08/27 02:08:20;;;;;;;13.45;9.10;;;27.60;65.40;;;;;;5075838;28;20039;-80
2022/08/27 02:10:47;;;;;;;14.90;9.95;;;27.90;64.70;;;;;;5093975;28;20028;-82
2022/08/27 02:13:13;;;;;;;14.63;8.18;;;28.00;64.00;;;;;;5075609;28;20064;-89
2022/08/27 02:15:41;;;;;;;12.95;7.60;;;28.10;63.90;;;;;;5076747;28;20063;-90
2022/08/27 02:18:09;;;;;;;15.85;8.77;;;27.50;65.70;;;;;;5093674;28;20432;-80
2022/08/27 02:20:35;;;;;;;12.63;9.02;;;27.40;65.60;;;;;;5094044;28;20429;-80
2022/08/27 02:23:03;;;;;;;16.88;7.30;;;27.60;64.70;;;;;;5093847;28;20467;-93
2022/08/27 02:25:29;;;;;;;11.50;7.05;;;27.60;65.00;;;;;;5077188;28;20105;-89
2022/08/27 02:27:58;;;;;;;17.02;7.88;;;27.00;66.70;;;;;;5075761;28;20114;-85
2022/08/27 02:30:26;;;;;;;10.95;7.75;;;26.90;67.00;;;;;;5075633;28;20074;-81
2022/08/27 02:32:52;;;;;;;12.77;8.10;;;27.30;65.70;;;;;;5075567;28;20035;-85
2022/08/27 02:35:20;;;;;;;11.63;8.00;;;27.20;66.40;;;;;;5075598;28;20020;-86
2022/08/27 02:37:46;;;;;;;13.65;8.68;;;27.30;65.30;;;;;;5075446;28;20136;-86
2022/08/27 02:40:17;;;;;;;11.02;7.53;;;27.50;64.70;;;;;;5075252;28;20051;-81
2022/08/27 02:42:44;;;;;;;14.85;8.00;;;27.50;64.70;;;;;;5075904;28;20020;-83
2022/08/27 02:45:10;;;;;;;13.10;8.38;;;27.10;65.70;;;;;;5075320;28;20066;-87
2022/08/27 02:47:36;;;;;;;14.35;8.20;;;27.10;65.60;;;;;;5093318;28;20443;-84
2022/08/27 02:50:04;;;;;;;13.88;8.25;;;27.40;65.00;;;;;;5076516;28;20530;-85
2022/08/27 02:52:30;;;;;;;12.70;8.13;;;27.00;65.40;;;;;;5075094;28;20032;-87
2022/08/27 02:54:57;;;;;;;13.45;7.50;;;27.00;65.60;;;;;;5075288;28;20054;-85
2022/08/27 02:57:22;;;;;;;13.10;8.15;;;27.10;65.20;;;;;;5077402;28;20032;-88
2022/08/27 02:59:50;;;;;;;13.65;8.63;;;26.70;66.70;;;;;;5093592;28;20016;-88
2022/08/27 03:02:16;;;;;;;11.65;7.10;;;26.90;66.50;;;;;;5075341;28;20086;-88
2022/08/27 03:04:42;;;;;;;15.38;7.78;;;27.20;65.40;;;;;;5075636;28;20551;-85
2022/08/27 03:07:07;;;;;;;13.45;8.73;;;27.30;65.80;;;;;;5093192;28;20115;-79
2022/08/27 03:09:33;;;;;;;14.13;7.72;;;27.50;65.00;;;;;;5093044;28;20024;-89
2022/08/27 03:12:00;;;;;;;13.82;8.27;;;27.70;64.20;;;;;;5075157;28;20111;-86
2022/08/27 03:14:27;;;;;;;15.05;10.45;;;27.60;64.70;;;;;;5093955;28;20115;-88
2022/08/27 03:16:53;;;;;;;12.48;7.70;;;27.70;64.30;;;;;;5097096;28;20017;-87
2022/08/27 03:19:20;;;;;;;14.20;8.52;;;27.50;65.20;;;;;;5097245;28;20119;-85
2022/08/27 03:21:46;;;;;;;14.35;8.50;;;27.50;65.30;;;;;;5079255;28;20382;-83
2022/08/27 03:24:12;;;;;;;11.88;8.32;;;27.60;64.70;;;;;;5097246;28;20032;-84
2022/08/27 03:26:38;;;;;;;14.80;9.57;;;27.70;64.70;;;;;;5079221;28;20020;-87
2022/08/27 03:29:04;;;;;;;18.67;9.98;;;27.80;63.90;;;;;;5078892;28;20425;-85
2022/08/27 03:31:30;;;;;;;12.73;8.55;;;27.90;63.50;;;;;;5097062;28;20103;-84
2022/08/27 03:34:01;;;;;;;12.93;9.25;;;27.80;64.20;;;;;;5096873;28;20699;-83
2022/08/27 03:36:28;;;;;;;14.07;8.93;;;27.80;63.70;;;;;;5078977;28;20024;-82
2022/08/27 03:38:55;;;;;;;14.02;8.70;;;27.90;63.40;;;;;;5078707;28;20056;-83
2022/08/27 03:41:21;;;;;;;12.30;8.43;;;27.90;63.50;;;;;;5078794;28;20055;-88
2022/08/27 03:43:47;;;;;;;15.73;9.57;;;28.00;63.40;;;;;;5096965;28;20051;-87
2022/08/27 03:46:13;;;;;;;14.20;8.30;;;27.90;63.40;;;;;;5078430;28;20059;-83
2022/08/27 03:48:39;;;;;;;9.90;8.43;;;27.90;63.30;;;;;;5079385;28;20024;-86
2022/08/27 03:51:11;;;;;;;12.93;8.30;;;27.80;63.90;;;;;;5096801;28;20035;-80
2022/08/27 03:53:38;;;;;;;12.50;8.43;;;27.80;63.80;;;;;;5096194;28;20048;-81
2022/08/27 03:56:05;;;;;;;11.40;8.75;;;27.80;63.70;;;;;;5096657;28;20032;-87
2022/08/27 03:58:32;;;;;;;15.00;8.85;;;27.70;64.30;;;;;;5078400;28;20028;-85
2022/08/27 04:00:58;;;;;;;15.00;8.65;;;27.80;64.40;;;;;;5096219;28;20024;-79
2022/08/27 04:03:24;;;;;;;16.35;8.00;;;27.90;64.20;;;;;;5096393;28;20035;-87
2022/08/27 04:05:57;;;;;;;14.00;9.15;;;27.80;64.20;;;;;;5078109;28;20077;-87
2022/08/27 04:08:24;;;;;;;12.27;9.07;;;27.80;63.90;;;;;;5096259;28;20034;-85
2022/08/27 04:10:50;;;;;;;16.15;7.70;;;28.00;63.60;;;;;;5078606;28;20118;-85
2022/08/27 04:13:16;;;;;;;16.65;7.65;;;28.00;64.20;;;;;;5095835;28;20394;-82
2022/08/27 04:15:44;;;;;;;15.73;9.00;;;28.00;63.70;;;;;;5078292;28;20028;-82
2022/08/27 04:18:11;;;;;;;11.32;9.25;;;28.00;63.30;;;;;;5095934;28;20024;-85
2022/08/27 04:20:37;;;;;;;15.88;9.25;;;28.00;63.00;;;;;;5078240;28;20020;-86
2022/08/27 04:23:04;;;;;;;11.48;8.55;;;28.00;63.00;;;;;;5096090;28;20107;-81
2022/08/27 04:25:30;;;;;;;14.05;8.35;;;28.00;63.10;;;;;;5077848;28;20534;-86
2022/08/27 04:27:56;;;;;;;18.92;9.73;;;28.00;62.80;;;;;;5096169;28;20394;-79
2022/08/27 04:30:22;;;;;;;11.35;7.93;;;28.00;62.60;;;;;;5077575;28;20467;-80
2022/08/27 04:32:49;;;;;;;16.02;9.52;;;28.00;62.60;;;;;;5077743;28;20039;-85
2022/08/27 04:35:15;;;;;;;16.10;8.98;;;27.90;62.90;;;;;;5077796;28;20028;-84
2022/08/27 04:37:41;;;;;;;11.63;7.20;;;27.90;63.00;;;;;;5095747;28;20065;-85
2022/08/27 04:40:07;;;;;;;13.00;7.60;;;27.80;63.20;;;;;;5095773;28;20375;-85
2022/08/27 04:42:32;;;;;;;11.40;7.13;;;27.60;63.50;;;;;;5077822;28;20020;-86
2022/08/27 04:44:58;;;;;;;13.10;8.13;;;27.50;63.90;;;;;;5077794;28;20351;-85
2022/08/27 04:47:24;;;;;;;14.90;7.97;;;27.40;64.10;;;;;;5077756;28;20028;-87
2022/08/27 04:49:49;;;;;;;14.13;7.65;;;27.60;63.70;;;;;;5095355;28;20034;-87
2022/08/27 04:52:15;;;;;;;11.13;6.72;;;27.70;63.50;;;;;;5077620;28;20085;-88
2022/08/27 04:54:41;;;;;;;15.45;7.25;;;27.80;63.10;;;;;;5077344;28;20086;-86
2022/08/27 04:57:07;;;;;;;14.27;6.55;;;27.80;63.50;;;;;;5095159;28;20386;-82
2022/08/27 04:59:34;;;;;;;14.95;7.22;;;27.90;63.20;;;;;;5095346;28;20016;-86
2022/08/27 05:02:01;;;;;;;12.73;6.88;;;28.10;62.90;;;;;;5095468;28;20016;-80
2022/08/27 05:04:29;;;;;;;15.50;6.50;;;28.10;62.70;;;;;;5076993;28;20028;-86
2022/08/27 05:06:55;;;;;;;9.23;6.22;;;28.10;62.80;;;;;;5077470;28;20379;-86
2022/08/27 05:09:21;;;;;;;16.48;6.82;;;28.20;62.60;;;;;;5077382;28;20086;-80
2022/08/27 05:11:46;;;;;;;15.52;7.15;;;28.20;63.20;;;;;;5077429;28;20024;-85
2022/08/27 05:14:14;;;;;;;13.38;6.88;;;28.30;62.90;;;;;;5094926;28;20518;-80
2022/08/27 05:16:41;;;;;;;12.85;6.57;;;28.40;62.60;;;;;;5077030;28;20522;-80
2022/08/27 05:19:09;;;;;;;16.40;7.13;;;28.70;62.20;;;;;;5095203;28;20028;-87
2022/08/27 05:21:37;;;;;;;12.73;6.90;;;28.80;62.00;;;;;;5094975;28;20027;-86
2022/08/27 05:24:05;;;;;;;11.40;6.57;;;28.90;62.20;;;;;;5095303;28;20062;-87
2022/08/27 05:26:33;;;;;;;13.07;6.95;;;28.90;62.30;;;;;;5076905;28;20448;-87
2022/08/27 05:28:59;;;;;;;36.88;24.55;;;28.90;62.00;;;;;;5094496;28;20089;-79
2022/08/27 05:31:26;;;;;;;86.78;71.97;;;29.10;61.90;;;;;;5094524;28;20433;-86
2022/08/27 05:33:55;;;;;;;96.43;72.25;;;29.20;61.90;;;;;;5076666;28;20129;-87
2022/08/27 05:36:26;;;;;;;72.20;56.10;;;29.30;61.80;;;;;;5094685;28;20019;-84
2022/08/27 05:38:54;;;;;;;68.63;52.83;;;29.40;61.60;;;;;;5076018;28;20043;-80
2022/08/27 05:41:26;;;;;;;60.63;44.58;;;29.50;61.60;;;;;;5076366;28;20032;-88
2022/08/27 05:43:55;;;;;;;50.10;38.90;;;29.60;61.30;;;;;;5088479;28;20525;-86
2022/08/27 05:46:23;;;;;;;34.47;26.58;;;29.70;61.40;;;;;;5094269;28;20073;-80
2022/08/27 05:48:51;;;;;;;20.20;13.52;;;29.70;61.60;;;;;;5094634;28;20154;-80
2022/08/27 05:51:19;;;;;;;19.60;12.63;;;29.80;61.50;;;;;;5076344;28;20024;-80
2022/08/27 05:53:45;;;;;;;23.20;13.95;;;29.90;61.50;;;;;;5072084;28;20049;-81
2022/08/27 05:56:19;;;;;;;18.58;12.70;;;30.00;61.30;;;;;;5074091;28;20035;-87
2022/08/27 06:01:39;;;;;;;14.77;10.00;;;30.10;60.50;;;;;;5074428;28;20067;-89
2022/08/27 06:04:05;;;;;;;18.60;8.95;;;30.10;61.00;;;;;;5072733;28;20131;-81
2022/08/27 06:06:36;;;;;;;17.42;8.80;;;30.20;61.40;;;;;;5072777;28;20063;-85
2022/08/27 06:09:01;;;;;;;12.55;8.23;;;30.30;61.40;;;;;;5074103;28;20076;-81
2022/08/27 06:11:27;;;;;;;11.93;8.32;;;30.40;61.10;;;;;;5073840;28;20443;-83
2022/08/27 06:13:55;;;;;;;16.80;9.82;;;30.50;60.70;;;;;;5072188;28;20043;-83
2022/08/27 06:16:21;;;;;;;11.65;7.43;;;30.50;60.60;;;;;;5073791;28;20027;-81
2022/08/27 06:18:48;;;;;;;11.57;7.68;;;30.60;59.10;;;;;;5072646;28;20159;-80
2022/08/27 06:21:16;;;;;;;14.88;7.68;;;30.60;60.00;;;;;;5072102;28;20021;-80
2022/08/27 06:23:42;;;;;;;10.98;7.05;;;30.80;59.70;;;;;;5072471;28;20052;-89
2022/08/27 06:26:10;;;;;;;16.05;7.05;;;30.90;59.80;;;;;;5073657;28;20055;-89
2022/08/27 06:28:36;;;;;;;13.38;7.05;;;31.00;60.00;;;;;;5072395;28;20035;-82
2022/08/27 06:31:09;;;;;;;13.50;6.22;;;31.00;60.70;;;;;;5073635;28;20021;-89
2022/08/27 06:33:36;;;;;;;13.73;6.50;;;31.10;61.00;;;;;;5072050;28;20206;-80
2022/08/27 06:36:05;;;;;;;7.90;5.90;;;31.10;61.20;;;;;;5073230;28;20029;-83
2022/08/27 06:38:32;;;;;;;11.73;5.75;;;31.20;60.80;;;;;;5072802;28;20029;-79
2022/08/27 06:40:58;;;;;;;8.13;5.68;;;31.30;60.70;;;;;;5071119;28;20024;-79
2022/08/27 06:43:24;;;;;;;14.05;5.78;;;31.20;60.70;;;;;;5072750;28;20028;-79
2022/08/27 06:45:50;;;;;;;10.13;6.60;;;31.30;61.40;;;;;;5071943;28;20031;-79
2022/08/27 06:48:17;;;;;;;13.90;6.20;;;31.50;61.70;;;;;;5071049;28;20082;-79
2022/08/27 06:50:43;;;;;;;13.77;5.93;;;31.50;61.30;;;;;;5071602;28;20024;-79
2022/08/27 06:53:09;;;;;;;12.98;6.10;;;31.60;60.20;;;;;;5073287;28;20060;-79
2022/08/27 06:55:47;;;;;;;12.85;6.13;;;31.60;60.20;;;;;;5075336;28;20126;-89
2022/08/27 06:58:14;;;;;;;13.40;5.63;;;31.70;60.40;;;;;;5093312;28;20345;-89
2022/08/27 07:00:41;;;;;;;10.48;6.40;;;31.60;60.40;;;;;;5075389;28;20063;-88
2022/08/27 07:03:07;;;;;;;15.38;5.50;;;31.70;60.30;;;;;;5092918;28;20107;-79
2022/08/27 07:05:35;;;;;;;13.20;5.70;;;31.70;60.00;;;;;;5092973;28;20031;-88
2022/08/27 07:08:02;;;;;;;13.02;5.50;;;31.80;59.70;;;;;;5093185;28;20447;-88
2022/08/27 07:10:28;;;;;;;9.25;5.30;;;32.10;58.50;;;;;;5093454;28;20016;-79
2022/08/27 07:12:54;;;;;;;9.23;5.13;;;32.40;58.10;;;;;;5074827;28;20569;-79
2022/08/27 07:15:20;;;;;;;10.05;6.03;;;32.60;58.40;;;;;;5093332;28;20025;-89
2022/08/27 07:17:46;;;;;;;11.55;6.22;;;32.80;58.20;;;;;;5092873;28;20028;-80
2022/08/27 07:20:13;;;;;;;9.27;6.80;;;33.00;57.60;;;;;;5093055;28;20095;-88
2022/08/27 07:22:40;;;;;;;10.55;6.18;;;33.10;56.90;;;;;;5093453;28;20042;-83
2022/08/27 07:25:08;;;;;;;11.02;5.88;;;33.20;56.40;;;;;;5074848;28;20032;-80
2022/08/27 07:27:35;;;;;;;8.23;4.82;;;33.20;56.40;;;;;;5093322;28;20102;-94
2022/08/27 07:30:02;;;;;;;11.10;5.47;;;33.30;57.40;;;;;;5075037;28;20024;-90
2022/08/27 07:32:28;;;;;;;8.60;5.00;;;33.20;57.50;;;;;;5075330;28;20077;-90
2022/08/27 07:34:54;;;;;;;11.15;5.43;;;33.10;57.60;;;;;;5074359;28;20031;-80
2022/08/27 07:37:21;;;;;;;10.55;5.40;;;33.20;58.50;;;;;;5092831;28;20024;-80
2022/08/27 07:39:47;;;;;;;10.27;5.13;;;33.20;58.40;;;;;;5092962;28;20027;-86
2022/08/27 07:44:57;;;;;;;12.45;5.13;;;33.40;57.90;;;;;;5093268;28;20038;-89
2022/08/27 07:47:23;;;;;;;11.88;4.72;;;33.30;57.00;;;;;;5092928;28;20024;-80
2022/08/27 07:49:49;;;;;;;8.23;4.78;;;33.30;56.40;;;;;;5093214;28;20105;-92
2022/08/27 07:52:15;;;;;;;10.13;4.63;;;33.10;55.30;;;;;;5075405;28;20024;-88
2022/08/27 07:54:41;;;;;;;11.05;4.97;;;32.90;54.90;;;;;;5092977;28;20104;-91
2022/08/27 07:57:07;;;;;;;9.60;4.82;;;32.70;55.50;;;;;;5074660;28;20024;-88
2022/08/27 07:59:33;;;;;;;8.93;4.80;;;32.80;55.40;;;;;;5076941;28;20554;-95
2022/08/27 08:01:59;;;;;;;9.68;4.88;;;32.60;54.10;;;;;;5096526;28;20103;-81
2022/08/27 08:04:26;;;;;;;9.68;4.25;;;32.70;54.00;;;;;;5083465;28;20043;-87
2022/08/27 08:06:52;;;;;;;10.75;4.95;;;32.60;54.90;;;;;;5098891;28;20016;-83
2022/08/27 08:09:19;;;;;;;8.10;4.78;;;32.60;54.60;;;;;;5095953;28;20028;-84
2022/08/27 08:11:44;;;;;;;8.30;4.72;;;33.00;55.00;;;;;;5079684;28;20534;-92
2022/08/27 08:14:10;;;;;;;11.40;4.72;;;33.10;55.40;;;;;;5079364;28;20036;-82
2022/08/27 08:16:36;;;;;;;10.15;5.10;;;33.40;55.20;;;;;;5096203;28;20020;-83
2022/08/27 08:21:11;;;;;;;10.43;4.70;;;33.50;53.90;;;;;;5086098;27;1386442;-90
2022/08/27 08:23:37;;;;;;;13.98;4.95;;;33.80;54.50;;;;;;5093312;28;20028;-80
2022/08/27 08:26:03;;;;;;;10.18;4.90;;;33.90;54.10;;;;;;5092761;28;20028;-92
2022/08/27 08:28:29;;;;;;;10.52;4.97;;;34.10;53.00;;;;;;5111062;28;20069;-84
2022/08/27 08:30:57;;;;;;;12.80;4.68;;;34.10;50.70;;;;;;5092871;28;20036;-85
2022/08/27 08:33:24;;;;;;;7.45;4.15;;;34.20;49.40;;;;;;5093733;28;20027;-86
2022/08/27 08:35:50;;;;;;;11.52;4.43;;;34.20;48.50;;;;;;5111089;28;20055;-89
2022/08/27 08:38:18;;;;;;;12.63;3.90;;;34.00;48.20;;;;;;5094197;28;20038;-82
2022/08/27 08:40:52;;;;;;;13.48;4.32;;;33.90;47.70;;;;;;5093872;28;20035;-82
2022/08/27 08:43:38;;;;;;;7.60;4.28;;;33.80;48.20;;;;;;5092754;28;20069;-94
2022/08/27 08:46:21;;;;;;;9.57;4.75;;;34.20;48.80;;;;;;5094206;28;20387;-87
2022/08/27 08:48:50;;;;;;;8.55;4.22;;;34.20;48.90;;;;;;5111545;28;20058;-81
2022/08/27 08:51:30;;;;;;;11.25;4.35;;;34.30;48.50;;;;;;5110748;28;20027;-84
2022/08/27 08:54:03;;;;;;;10.73;4.78;;;34.60;47.50;;;;;;5093107;28;20024;-87
2022/08/27 08:56:56;;;;;;;10.40;4.28;;;34.70;48.40;;;;;;5092513;28;20020;-94
2022/08/27 08:59:37;;;;;;;11.88;4.30;;;35.00;49.30;;;;;;5110783;28;20036;-83
2022/08/27 09:02:10;;;;;;;11.40;4.32;;;34.90;48.20;;;;;;5092200;28;20016;-85
2022/08/27 09:04:36;;;;;;;12.55;4.25;;;34.60;47.60;;;;;;5092665;28;20027;-84
2022/08/27 09:07:22;;;;;;;11.40;4.68;;;34.20;50.00;;;;;;5093337;28;20024;-93
2022/08/27 09:10:02;;;;;;;10.52;4.45;;;34.30;49.40;;;;;;5093080;28;20038;-88
2022/08/27 09:12:32;;;;;;;10.97;4.33;;;34.50;49.20;;;;;;5101626;28;20365;-85
2022/08/27 09:15:13;;;;;;;11.73;4.45;;;34.90;50.00;;;;;;5074577;28;20024;-93
2022/08/27 09:17:40;;;;;;;9.00;4.40;;;35.10;48.30;;;;;;5092825;28;20154;-89
2022/08/27 09:20:07;;;;;;;9.00;4.07;;;35.10;48.90;;;;;;5072982;28;20101;-83
2022/08/27 09:22:50;;;;;;;9.98;4.15;;;35.20;49.90;;;;;;5090656;28;20016;-95
2022/08/27 09:25:26;;;;;;;8.43;4.25;;;35.40;50.10;;;;;;5073756;28;20074;-85
2022/08/27 09:27:55;;;;;;;16.00;4.85;;;35.40;49.30;;;;;;5090143;28;20085;-85
2022/08/27 09:30:27;;;;;;;10.30;4.70;;;35.50;50.10;;;;;;5070490;28;20020;-83
2022/08/27 09:32:56;;;;;;;6.95;4.00;;;35.80;50.00;;;;;;5060707;28;20021;-95
2022/08/27 09:35:25;;;;;;;7.63;4.03;;;35.90;49.90;;;;;;5078494;28;20380;-89
2022/08/27 09:37:53;;;;;;;13.65;4.78;;;35.80;47.70;;;;;;5058515;28;20024;-94
2022/08/27 09:40:40;;;;;;;14.20;6.20;;;35.80;48.70;;;;;;5076373;28;20074;-88
2022/08/27 09:43:15;;;;;;;9.18;4.53;;;35.90;48.90;;;;;;5057947;28;20475;-86
2022/08/27 09:46:17;;;;;;;11.30;5.53;;;36.10;50.30;;;;;;5076528;28;20025;-88
2022/08/27 09:48:43;;;;;;;8.18;4.47;;;36.40;48.60;;;;;;5076165;28;20020;-88
2022/08/27 09:51:13;;;;;;;9.70;4.40;;;36.50;48.10;;;;;;5058144;28;20085;-88
2022/08/27 09:53:50;;;;;;;9.38;4.32;;;36.80;47.90;;;;;;5075917;28;20074;-90
2022/08/27 09:56:29;;;;;;;9.25;4.47;;;36.90;47.60;;;;;;5077457;28;20036;-94
2022/08/27 09:59:00;;;;;;;9.07;4.10;;;36.90;46.60;;;;;;5076409;28;20050;-95
2022/08/27 10:01:29;;;;;;;10.60;4.10;;;36.50;48.40;;;;;;5058282;28;20119;-93
2022/08/27 10:04:10;;;;;;;10.65;4.18;;;36.10;47.40;;;;;;5057867;28;20057;-95
2022/08/27 10:06:37;;;;;;;10.13;4.20;;;36.30;48.50;;;;;;5081648;28;20031;-81
2022/08/27 10:09:20;;;;;;;9.27;4.18;;;36.50;47.60;;;;;;5074949;28;20024;-82
2022/08/27 10:11:58;;;;;;;7.97;4.00;;;37.00;47.30;;;;;;5074731;28;20052;-81
2022/08/27 10:14:30;;;;;;;8.73;3.70;;;37.20;47.70;;;;;;5074703;28;20024;-80
2022/08/27 10:16:59;;;;;;;9.32;3.85;;;37.40;46.40;;;;;;5056576;28;20024;-82
2022/08/27 10:19:25;;;;;;;12.10;4.15;;;37.40;46.50;;;;;;5056725;28;20372;-83
2022/08/27 10:22:09;;;;;;;9.77;3.70;;;37.50;47.80;;;;;;5057398;28;20078;-96
2022/08/27 10:25:08;;;;;;;11.52;3.90;;;37.40;46.50;;;;;;5057887;28;20033;-89
2022/08/27 10:28:03;;;;;;;7.80;3.47;;;37.50;46.50;;;;;;5075368;28;20097;-90
2022/08/27 10:31:01;;;;;;;9.52;3.95;;;37.60;46.30;;;;;;5057173;28;20025;-84
2022/08/27 10:33:32;;;;;;;6.68;3.50;;;37.50;45.00;;;;;;5057323;28;20024;-93
2022/08/27 10:36:15;;;;;;;9.55;4.18;;;37.40;47.10;;;;;;5057427;28;20024;-95
2022/08/27 10:39:13;;;;;;;10.18;3.92;;;37.50;47.70;;;;;;5074799;28;20498;-90
2022/08/27 10:41:45;;;;;;;7.68;4.00;;;37.70;46.30;;;;;;5075249;28;20064;-95
2022/08/27 10:44:23;;;;;;;8.98;3.40;;;37.70;46.60;;;;;;5056151;28;20063;-88
2022/08/27 10:47:24;;;;;;;10.75;3.83;;;37.30;46.40;;;;;;5056698;28;20108;-88
2022/08/27 10:50:19;;;;;;;11.13;3.67;;;36.90;46.50;;;;;;5074950;28;20025;-89
2022/08/27 10:52:53;;;;;;;18.17;4.50;;;37.00;46.80;;;;;;5073893;28;20028;-83
2022/08/27 10:55:29;;;;;;;6.65;3.60;;;37.10;45.40;;;;;;5074159;28;20036;-81
2022/08/27 10:58:22;;;;;;;7.82;3.28;;;36.90;45.30;;;;;;5073666;28;20051;-87
2022/08/27 11:01:25;;;;;;;10.18;3.67;;;37.00;46.70;;;;;;5074855;28;20028;-89
2022/08/27 11:04:13;;;;;;;11.23;4.18;;;37.40;46.20;;;;;;5074341;28;20028;-80
2022/08/27 11:06:44;;;;;;;8.20;3.35;;;37.40;44.80;;;;;;5057803;28;20021;-91
2022/08/27 11:09:25;;;;;;;9.32;3.60;;;37.30;44.90;;;;;;5056429;28;20028;-91
2022/08/27 11:11:57;;;;;;;9.38;3.28;;;37.50;45.70;;;;;;5070759;28;20068;-93
2022/08/27 11:14:55;;;;;;;8.32;3.70;;;37.50;45.70;;;;;;5074236;28;20020;-88
2022/08/27 11:17:35;;;;;;;9.18;3.33;;;37.60;46.50;;;;;;4957450;28;20035;-83
2022/08/27 11:20:25;;;;;;;7.57;3.33;;;37.80;46.00;;;;;;4957065;28;20089;-88
2022/08/27 11:23:17;;;;;;;9.13;3.53;;;37.80;45.20;;;;;;4960080;28;20279;-79
2022/08/27 11:26:02;;;;;;;10.23;3.85;;;37.80;44.30;;;;;;4973416;28;20150;-88
2022/08/27 11:28:36;;;;;;;8.23;3.35;;;37.90;44.60;;;;;;4957202;28;20584;-86
2022/08/27 11:31:32;;;;;;;4.80;2.92;;;38.00;44.80;;;;;;4973619;28;20034;-81
2022/08/27 11:34:09;;;;;;;8.45;3.20;;;38.10;42.90;;;;;;4973270;28;20035;-88
2022/08/27 11:37:18;;;;;;;9.73;3.35;;;38.10;43.20;;;;;;4957203;28;20596;-87
2022/08/27 11:40:02;;;;;;;8.25;3.03;;;38.20;44.80;;;;;;4896772;29;20569;-85
2022/08/27 11:42:50;;;;;;;9.80;3.40;;;38.10;43.80;;;;;;4896860;29;20064;-89
2022/08/27 11:45:19;;;;;;;8.07;2.88;;;38.10;43.50;;;;;;4896882;29;20048;-81
2022/08/27 11:47:56;;;;;;;11.73;3.40;;;38.30;43.50;;;;;;4897259;29;20040;-82
2022/08/27 11:50:24;;;;;;;10.98;3.63;;;38.50;42.70;;;;;;4880803;29;20516;-87
2022/08/27 11:53:04;;;;;;;9.32;3.45;;;38.40;43.60;;;;;;4881094;29;20028;-85
2022/08/27 11:55:35;;;;;;;;;;;38.40;44.30;;;;;;4973354;28;20041;-85
2022/08/27 11:58:16;;;;;;;9.10;3.25;;;38.40;44.60;;;;;;4972876;28;19906;-85
2022/08/27 12:00:44;;;;;;;11.48;3.60;;;38.10;43.40;;;;;;4956800;28;20030;-85
2022/08/27 12:03:27;;;;;;;9.45;3.30;;;38.10;44.00;;;;;;4956210;28;20038;-81
2022/08/27 12:05:53;;;;;;;8.40;3.22;;;38.20;45.00;;;;;;4956705;28;20042;-86
2022/08/27 12:08:21;;;;;;;7.32;3.25;;;38.30;44.10;;;;;;4956620;28;20066;-89
2022/08/27 12:10:55;;;;;;;11.40;3.47;;;38.50;43.60;;;;;;5022283;28;20043;-80
2022/08/27 12:13:54;;;;;;;8.45;3.15;;;38.50;43.00;;;;;;5073294;28;20365;-82
2022/08/27 12:16:38;;;;;;;7.47;2.90;;;38.40;42.60;;;;;;5055317;28;20024;-91
2022/08/27 12:19:25;;;;;;;9.30;3.35;;;38.20;43.00;;;;;;5056362;28;20033;-84
2022/08/27 12:22:09;;;;;;;11.20;3.17;;;38.00;42.50;;;;;;5055065;28;20039;-85
2022/08/27 12:24:54;;;;;;;10.57;3.30;;;37.90;42.00;;;;;;5055133;28;20028;-84
2022/08/27 12:27:33;;;;;;;11.73;3.20;;;38.00;41.60;;;;;;5073451;28;20512;-87
2022/08/27 12:30:17;;;;;;;9.40;2.97;;;38.20;41.50;;;;;;5055121;28;20029;-86
2022/08/27 12:32:45;;;;;;;8.52;3.50;;;38.20;42.30;;;;;;5072828;28;20017;-84
2022/08/27 12:35:13;;;;;;;7.55;3.17;;;38.40;43.50;;;;;;5073209;28;20537;-87
2022/08/27 12:37:50;;;;;;;8.38;3.30;;;38.40;41.60;;;;;;5055290;28;20464;-84
2022/08/27 12:40:27;;;;;;;9.40;3.35;;;38.60;42.20;;;;;;5054948;28;20036;-84
2022/08/27 12:43:16;;;;;;;10.13;3.28;;;38.60;43.30;;;;;;5073074;28;20032;-83
2022/08/27 12:45:47;;;;;;;11.90;3.60;;;38.70;43.20;;;;;;5074186;28;20383;-84
2022/08/27 12:48:17;;;;;;;10.85;4.07;;;38.60;42.30;;;;;;5055019;28;20071;-80
2022/08/27 12:50:43;;;;;;;;;;;38.40;43.40;;;;;;5073043;28;20383;-77
2022/08/27 12:53:24;;;;;;;8.77;3.40;;;38.10;43.00;;;;;;5073848;28;20406;-88
2022/08/27 12:56:34;;;;;;;12.82;7.72;;;38.10;43.10;;;;;;5067959;28;20040;-86
2022/08/27 12:59:14;;;;;;;14.48;3.92;;;38.10;42.00;;;;;;4971938;28;20027;-83
2022/08/27 13:01:45;;;;;;;;;;;38.30;43.00;;;;;;4972552;28;20051;-84
2022/08/27 13:04:26;;;;;;;9.80;3.80;;;38.40;42.90;;;;;;4971890;28;19907;-89
2022/08/27 13:06:52;;;;;;;;;;;38.50;43.10;;;;;;4955660;28;20442;-82
2022/08/27 13:09:35;;;;;;;12.38;3.25;;;38.50;43.70;;;;;;4975849;28;20404;-82